sensor_id;sensor_type;location;lat;lon;timestamp;P1;P2;P0
76049;PMS7003;64967;50.234;19.224;2024-03-08T00:00:34;64.33;46.33;32.00
76049;PMS7003;64967;50.234;19.224;2024-03-08T00:03:01;57.50;48.00;32.50
76049;PMS7003;64967;50.234;19.224;2024-03-08T00:05:29;52.00;43.00;27.67
76049;PMS7003;64967;50.234;19.224;2024-03-08T00:07:56;64.25;46.75;30.25
76049;PMS7003;64967;50.234;19.224;2024-03-08T00:10:22;48.33;43.00;29.33
76049;PMS7003;64967;50.234;19.224;2024-03-08T00:12:53;33.33;30.67;23.67
76049;PMS7003;64967;50.234;19.224;2024-03-08T00:15:20;43.67;31.00;20.67
76049;PMS7003;64967;50.234;19.224;2024-03-08T00:17:49;37.67;23.00;17.00
76049;PMS7003;64967;50.234;19.224;2024-03-08T00:20:16;23.67;20.00;14.00
76049;PMS7003;64967;50.234;19.224;2024-03-08T00:22:46;26.00;16.00;10.00
76049;PMS7003;64967;50.234;19.224;2024-03-08T00:25:13;21.67;17.33;12.33
76049;PMS7003;64967;50.234;19.224;2024-03-08T00:27:41;17.67;17.67;10.67
76049;PMS7003;64967;50.234;19.224;2024-03-08T00:30:07;41.33;30.00;19.00
76049;PMS7003;64967;50.234;19.224;2024-03-08T00:32:35;47.67;39.00;23.00
76049;PMS7003;64967;50.234;19.224;2024-03-08T00:35:02;49.33;42.33;26.33
76049;PMS7003;64967;50.234;19.224;2024-03-08T00:37:29;51.67;35.00;22.67
76049;PMS7003;64967;50.234;19.224;2024-03-08T00:39:56;43.33;35.67;24.00
76049;PMS7003;64967;50.234;19.224;2024-03-08T00:42:22;47.00;37.67;25.00
76049;PMS7003;64967;50.234;19.224;2024-03-08T00:44:50;46.67;36.67;24.00
76049;PMS7003;64967;50.234;19.224;2024-03-08T00:47:18;34.67;25.67;18.67
76049;PMS7003;64967;50.234;19.224;2024-03-08T00:49:45;37.00;24.00;14.67
76049;PMS7003;64967;50.234;19.224;2024-03-08T00:52:13;19.33;13.00;7.00
76049;PMS7003;64967;50.234;19.224;2024-03-08T00:54:39;24.67;19.67;13.33
76049;PMS7003;64967;50.234;19.224;2024-03-08T00:57:06;37.00;30.67;22.33
76049;PMS7003;64967;50.234;19.224;2024-03-08T00:59:33;50.33;34.67;22.33
76049;PMS7003;64967;50.234;19.224;2024-03-08T01:02:00;35.33;29.33;18.00
76049;PMS7003;64967;50.234;19.224;2024-03-08T01:04:28;29.00;26.67;18.00
76049;PMS7003;64967;50.234;19.224;2024-03-08T01:06:58;26.33;20.33;15.33
76049;PMS7003;64967;50.234;19.224;2024-03-08T01:09:26;26.33;23.00;19.33
76049;PMS7003;64967;50.234;19.224;2024-03-08T01:11:54;24.33;18.00;11.00
76049;PMS7003;64967;50.234;19.224;2024-03-08T01:14:21;30.67;22.67;14.00
76049;PMS7003;64967;50.234;19.224;2024-03-08T01:16:49;27.67;23.00;16.67
76049;PMS7003;64967;50.234;19.224;2024-03-08T01:19:16;28.67;20.00;16.33
76049;PMS7003;64967;50.234;19.224;2024-03-08T01:21:43;56.00;35.00;20.00
76049;PMS7003;64967;50.234;19.224;2024-03-08T01:24:10;53.50;45.25;29.50
76049;PMS7003;64967;50.234;19.224;2024-03-08T01:26:37;64.75;46.75;30.00
76049;PMS7003;64967;50.234;19.224;2024-03-08T01:29:04;62.33;45.67;29.33
76049;PMS7003;64967;50.234;19.224;2024-03-08T01:31:31;60.67;43.33;25.00
76049;PMS7003;64967;50.234;19.224;2024-03-08T01:33:58;40.00;30.67;23.33
76049;PMS7003;64967;50.234;19.224;2024-03-08T01:36:25;51.67;45.67;25.67
76049;PMS7003;64967;50.234;19.224;2024-03-08T01:38:52;67.25;49.50;29.25
76049;PMS7003;64967;50.234;19.224;2024-03-08T01:41:20;62.00;46.50;30.50
76049;PMS7003;64967;50.234;19.224;2024-03-08T01:43:47;62.75;47.00;30.00
76049;PMS7003;64967;50.234;19.224;2024-03-08T01:46:15;60.67;42.00;26.00
76049;PMS7003;64967;50.234;19.224;2024-03-08T01:48:44;54.75;43.75;28.25
76049;PMS7003;64967;50.234;19.224;2024-03-08T01:51:11;68.25;52.75;33.25
76049;PMS7003;64967;50.234;19.224;2024-03-08T01:53:38;73.25;53.75;33.50
76049;PMS7003;64967;50.234;19.224;2024-03-08T01:56:08;72.75;55.00;34.00
76049;PMS7003;64967;50.234;19.224;2024-03-08T01:58:35;55.75;46.50;29.25
76049;PMS7003;64967;50.234;19.224;2024-03-08T02:01:02;71.75;49.75;32.75
76049;PMS7003;64967;50.234;19.224;2024-03-08T02:03:30;66.75;51.50;34.50
76049;PMS7003;64967;50.234;19.224;2024-03-08T02:05:58;74.50;54.25;30.75
76049;PMS7003;64967;50.234;19.224;2024-03-08T02:08:27;75.00;58.50;36.75
76049;PMS7003;64967;50.234;19.224;2024-03-08T02:10:54;81.50;59.00;39.00
76049;PMS7003;64967;50.234;19.224;2024-03-08T02:13:21;77.75;51.00;32.75
76049;PMS7003;64967;50.234;19.224;2024-03-08T02:15:57;63.25;41.75;28.75
76049;PMS7003;64967;50.234;19.224;2024-03-08T02:18:29;74.25;50.00;32.50
76049;PMS7003;64967;50.234;19.224;2024-03-08T02:20:56;72.25;52.50;35.25
76049;PMS7003;64967;50.234;19.224;2024-03-08T02:23:25;65.25;50.50;33.25
76049;PMS7003;64967;50.234;19.224;2024-03-08T02:25:53;57.33;44.67;30.67
76049;PMS7003;64967;50.234;19.224;2024-03-08T02:28:21;59.25;45.25;28.75
76049;PMS7003;64967;50.234;19.224;2024-03-08T02:30:49;63.50;47.75;30.50
76049;PMS7003;64967;50.234;19.224;2024-03-08T02:33:24;67.75;45.00;28.00
76049;PMS7003;64967;50.234;19.224;2024-03-08T02:35:52;58.75;46.75;27.50
76049;PMS7003;64967;50.234;19.224;2024-03-08T02:38:20;45.00;36.33;26.00
76049;PMS7003;64967;50.234;19.224;2024-03-08T02:40:49;39.00;31.00;21.33
76049;PMS7003;64967;50.234;19.224;2024-03-08T02:43:17;49.33;40.33;28.00
76049;PMS7003;64967;50.234;19.224;2024-03-08T02:45:45;44.67;34.33;24.67
76049;PMS7003;64967;50.234;19.224;2024-03-08T02:48:13;27.33;20.67;14.00
76049;PMS7003;64967;50.234;19.224;2024-03-08T02:50:41;58.33;43.33;27.67
76049;PMS7003;64967;50.234;19.224;2024-03-08T02:53:09;41.00;36.33;26.00
76049;PMS7003;64967;50.234;19.224;2024-03-08T02:55:37;55.25;40.75;30.25
76049;PMS7003;64967;50.234;19.224;2024-03-08T02:58:04;59.00;46.00;32.00
76049;PMS7003;64967;50.234;19.224;2024-03-08T03:00:30;69.75;49.00;31.75
76049;PMS7003;64967;50.234;19.224;2024-03-08T03:02:57;80.50;51.00;31.75
76049;PMS7003;64967;50.234;19.224;2024-03-08T03:05:24;61.75;45.00;27.75
76049;PMS7003;64967;50.234;19.224;2024-03-08T03:07:51;65.25;53.25;32.00
76049;PMS7003;64967;50.234;19.224;2024-03-08T03:10:19;67.00;46.25;29.75
76049;PMS7003;64967;50.234;19.224;2024-03-08T03:12:45;63.25;47.50;30.00
76049;PMS7003;64967;50.234;19.224;2024-03-08T03:15:12;61.00;43.67;28.00
76049;PMS7003;64967;50.234;19.224;2024-03-08T03:17:40;60.75;45.00;27.00
76049;PMS7003;64967;50.234;19.224;2024-03-08T03:20:07;67.25;51.00;30.75
76049;PMS7003;64967;50.234;19.224;2024-03-08T03:22:40;49.00;40.67;28.00
76049;PMS7003;64967;50.234;19.224;2024-03-08T03:25:08;54.33;43.00;27.00
76049;PMS7003;64967;50.234;19.224;2024-03-08T03:27:36;66.67;48.67;30.67
76049;PMS7003;64967;50.234;19.224;2024-03-08T03:30:03;72.75;50.00;31.50
76049;PMS7003;64967;50.234;19.224;2024-03-08T03:32:48;59.25;46.00;29.00
76049;PMS7003;64967;50.234;19.224;2024-03-08T03:35:17;66.50;51.25;31.25
76049;PMS7003;64967;50.234;19.224;2024-03-08T03:37:47;56.50;45.25;28.00
76049;PMS7003;64967;50.234;19.224;2024-03-08T03:40:35;54.67;42.67;26.00
76049;PMS7003;64967;50.234;19.224;2024-03-08T03:43:03;53.67;40.33;24.67
76049;PMS7003;64967;50.234;19.224;2024-03-08T03:45:30;50.00;39.67;29.00
76049;PMS7003;64967;50.234;19.224;2024-03-08T03:48:02;63.67;47.00;28.67
76049;PMS7003;64967;50.234;19.224;2024-03-08T03:50:34;52.67;45.67;28.67
76049;PMS7003;64967;50.234;19.224;2024-03-08T03:53:03;70.25;51.75;32.00
76049;PMS7003;64967;50.234;19.224;2024-03-08T03:55:30;58.67;47.00;29.67
76049;PMS7003;64967;50.234;19.224;2024-03-08T03:57:57;64.33;44.67;30.00
76049;PMS7003;64967;50.234;19.224;2024-03-08T04:00:25;58.67;47.00;30.67
76049;PMS7003;64967;50.234;19.224;2024-03-08T04:02:53;69.00;51.00;32.25
76049;PMS7003;64967;50.234;19.224;2024-03-08T04:05:21;50.00;40.00;28.00
76049;PMS7003;64967;50.234;19.224;2024-03-08T04:07:48;62.33;45.33;29.67
76049;PMS7003;64967;50.234;19.224;2024-03-08T04:10:14;62.00;44.33;27.67
76049;PMS7003;64967;50.234;19.224;2024-03-08T04:12:41;61.67;46.00;28.67
76049;PMS7003;64967;50.234;19.224;2024-03-08T04:15:08;46.33;38.33;27.00
76049;PMS7003;64967;50.234;19.224;2024-03-08T04:17:37;55.00;43.00;28.00
76049;PMS7003;64967;50.234;19.224;2024-03-08T04:20:04;46.67;41.33;27.67
76049;PMS7003;64967;50.234;19.224;2024-03-08T04:22:36;49.67;38.33;24.33
76049;PMS7003;64967;50.234;19.224;2024-03-08T04:25:03;36.00;33.00;24.00
76049;PMS7003;64967;50.234;19.224;2024-03-08T04:27:30;45.67;34.67;23.33
76049;PMS7003;64967;50.234;19.224;2024-03-08T04:29:59;41.00;32.67;21.33
76049;PMS7003;64967;50.234;19.224;2024-03-08T04:32:26;47.67;34.33;24.67
76049;PMS7003;64967;50.234;19.224;2024-03-08T04:34:52;42.00;32.67;23.33
76049;PMS7003;64967;50.234;19.224;2024-03-08T04:37:19;49.33;41.67;25.00
76049;PMS7003;64967;50.234;19.224;2024-03-08T04:39:48;53.67;42.00;27.67
76049;PMS7003;64967;50.234;19.224;2024-03-08T04:42:14;41.33;36.33;24.67
76049;PMS7003;64967;50.234;19.224;2024-03-08T04:44:44;51.33;42.00;25.33
76049;PMS7003;64967;50.234;19.224;2024-03-08T04:47:11;30.67;26.67;18.67
76049;PMS7003;64967;50.234;19.224;2024-03-08T04:49:38;44.67;36.33;25.67
76049;PMS7003;64967;50.234;19.224;2024-03-08T04:52:05;43.00;34.00;22.67
76049;PMS7003;64967;50.234;19.224;2024-03-08T04:54:33;61.00;42.67;27.33
76049;PMS7003;64967;50.234;19.224;2024-03-08T04:57:00;69.00;50.00;29.00
76049;PMS7003;64967;50.234;19.224;2024-03-08T04:59:31;58.00;43.00;28.00
76049;PMS7003;64967;50.234;19.224;2024-03-08T05:01:57;61.67;44.67;29.67
76049;PMS7003;64967;50.234;19.224;2024-03-08T05:04:24;54.67;34.67;21.33
76049;PMS7003;64967;50.234;19.224;2024-03-08T05:06:50;61.00;45.00;28.33
76049;PMS7003;64967;50.234;19.224;2024-03-08T05:09:17;53.67;41.67;26.67
76049;PMS7003;64967;50.234;19.224;2024-03-08T05:11:45;51.00;37.33;19.67
76049;PMS7003;64967;50.234;19.224;2024-03-08T05:14:13;59.67;45.33;26.67
76049;PMS7003;64967;50.234;19.224;2024-03-08T05:16:46;40.67;33.67;23.33
76049;PMS7003;64967;50.234;19.224;2024-03-08T05:19:15;49.33;39.33;28.00
76049;PMS7003;64967;50.234;19.224;2024-03-08T05:21:48;64.33;45.33;28.00
76049;PMS7003;64967;50.234;19.224;2024-03-08T05:24:16;48.67;36.33;27.00
76049;PMS7003;64967;50.234;19.224;2024-03-08T05:26:44;43.33;36.00;23.33
76049;PMS7003;64967;50.234;19.224;2024-03-08T05:29:12;44.33;34.00;20.33
76049;PMS7003;64967;50.234;19.224;2024-03-08T05:31:47;47.67;38.67;28.00
76049;PMS7003;64967;50.234;19.224;2024-03-08T05:34:16;55.67;40.67;28.00
76049;PMS7003;64967;50.234;19.224;2024-03-08T05:36:43;47.00;37.67;25.00
76049;PMS7003;64967;50.234;19.224;2024-03-08T05:39:14;53.00;42.33;25.00
76049;PMS7003;64967;50.234;19.224;2024-03-08T05:41:42;52.33;41.67;25.00
76049;PMS7003;64967;50.234;19.224;2024-03-08T05:44:10;49.00;33.33;21.00
76049;PMS7003;64967;50.234;19.224;2024-03-08T05:46:37;39.67;29.67;22.67
76049;PMS7003;64967;50.234;19.224;2024-03-08T05:49:04;52.00;42.00;25.00
76049;PMS7003;64967;50.234;19.224;2024-03-08T05:51:35;43.00;32.67;19.33
76049;PMS7003;64967;50.234;19.224;2024-03-08T05:54:03;42.67;37.00;24.00
76049;PMS7003;64967;50.234;19.224;2024-03-08T05:56:32;39.67;30.33;23.00
76049;PMS7003;64967;50.234;19.224;2024-03-08T05:59:00;40.67;34.67;21.33
76049;PMS7003;64967;50.234;19.224;2024-03-08T06:01:27;47.33;35.00;23.33
76049;PMS7003;64967;50.234;19.224;2024-03-08T06:03:55;39.67;33.67;23.00
76049;PMS7003;64967;50.234;19.224;2024-03-08T06:06:23;46.33;36.67;23.00
76049;PMS7003;64967;50.234;19.224;2024-03-08T06:08:51;43.67;34.67;23.00
76049;PMS7003;64967;50.234;19.224;2024-03-08T06:11:19;47.00;39.67;22.00
76049;PMS7003;64967;50.234;19.224;2024-03-08T06:13:47;32.33;32.33;22.00
76049;PMS7003;64967;50.234;19.224;2024-03-08T06:16:14;47.33;41.33;27.00
76049;PMS7003;64967;50.234;19.224;2024-03-08T06:18:41;45.00;39.00;25.67
76049;PMS7003;64967;50.234;19.224;2024-03-08T06:21:08;37.33;33.67;23.67
76049;PMS7003;64967;50.234;19.224;2024-03-08T06:23:38;45.33;33.33;20.00
76049;PMS7003;64967;50.234;19.224;2024-03-08T06:26:06;34.33;31.67;22.67
76049;PMS7003;64967;50.234;19.224;2024-03-08T06:28:33;42.67;34.33;22.00
76049;PMS7003;64967;50.234;19.224;2024-03-08T06:31:01;39.67;34.67;21.67
76049;PMS7003;64967;50.234;19.224;2024-03-08T06:33:29;44.67;38.67;25.00
76049;PMS7003;64967;50.234;19.224;2024-03-08T06:35:56;40.00;31.33;20.33
76049;PMS7003;64967;50.234;19.224;2024-03-08T06:38:24;39.00;33.33;22.00
76049;PMS7003;64967;50.234;19.224;2024-03-08T06:40:54;38.67;33.33;17.33
76049;PMS7003;64967;50.234;19.224;2024-03-08T06:43:21;42.00;35.33;25.33
76049;PMS7003;64967;50.234;19.224;2024-03-08T06:45:48;41.00;33.33;24.00
76049;PMS7003;64967;50.234;19.224;2024-03-08T06:48:15;36.67;29.00;21.00
76049;PMS7003;64967;50.234;19.224;2024-03-08T06:50:44;54.00;41.00;27.00
76049;PMS7003;64967;50.234;19.224;2024-03-08T06:53:11;42.67;33.00;25.00
76049;PMS7003;64967;50.234;19.224;2024-03-08T06:55:40;44.00;41.33;24.67
76049;PMS7003;64967;50.234;19.224;2024-03-08T06:58:06;45.33;34.33;24.33
76049;PMS7003;64967;50.234;19.224;2024-03-08T07:00:33;42.67;37.00;26.00
76049;PMS7003;64967;50.234;19.224;2024-03-08T07:03:00;45.33;39.00;26.00
76049;PMS7003;64967;50.234;19.224;2024-03-08T07:05:29;44.67;35.33;21.00
76049;PMS7003;64967;50.234;19.224;2024-03-08T07:07:57;43.67;33.33;19.67
76049;PMS7003;64967;50.234;19.224;2024-03-08T07:10:24;34.00;27.67;19.00
76049;PMS7003;64967;50.234;19.224;2024-03-08T07:12:52;39.00;21.33;16.00
76049;PMS7003;64967;50.234;19.224;2024-03-08T07:15:21;35.00;29.33;18.00
76049;PMS7003;64967;50.234;19.224;2024-03-08T07:17:49;43.00;33.33;20.00
76049;PMS7003;64967;50.234;19.224;2024-03-08T07:20:19;32.00;29.67;17.67
76049;PMS7003;64967;50.234;19.224;2024-03-08T07:22:46;34.00;26.00;19.00
76049;PMS7003;64967;50.234;19.224;2024-03-08T07:25:19;30.00;26.67;18.00
76049;PMS7003;64967;50.234;19.224;2024-03-08T07:27:48;26.33;20.33;13.00
76049;PMS7003;64967;50.234;19.224;2024-03-08T07:30:15;19.33;17.00;13.00
76049;PMS7003;64967;50.234;19.224;2024-03-08T07:33:01;25.00;23.33;18.00
76049;PMS7003;64967;50.234;19.224;2024-03-08T07:35:29;28.00;19.67;12.00
76049;PMS7003;64967;50.234;19.224;2024-03-08T07:37:55;29.67;23.67;16.67
76049;PMS7003;64967;50.234;19.224;2024-03-08T07:40:22;35.00;25.67;15.00
76049;PMS7003;64967;50.234;19.224;2024-03-08T07:42:49;41.33;36.67;26.67
76049;PMS7003;64967;50.234;19.224;2024-03-08T07:45:17;48.00;38.33;23.00
76049;PMS7003;64967;50.234;19.224;2024-03-08T07:47:44;34.33;23.67;11.00
76049;PMS7003;64967;50.234;19.224;2024-03-08T07:50:11;44.67;36.67;23.33
76049;PMS7003;64967;50.234;19.224;2024-03-08T07:52:37;47.00;34.33;23.00
76049;PMS7003;64967;50.234;19.224;2024-03-08T07:55:04;36.67;30.00;18.00
76049;PMS7003;64967;50.234;19.224;2024-03-08T07:57:32;28.00;27.33;19.00
76049;PMS7003;64967;50.234;19.224;2024-03-08T07:59:59;33.00;27.33;18.00
76049;PMS7003;64967;50.234;19.224;2024-03-08T08:02:26;36.00;31.67;22.33
76049;PMS7003;64967;50.234;19.224;2024-03-08T08:04:52;39.67;35.33;22.33
76049;PMS7003;64967;50.234;19.224;2024-03-08T08:07:19;56.33;44.33;27.33
76049;PMS7003;64967;50.234;19.224;2024-03-08T08:09:46;45.00;37.33;24.00
76049;PMS7003;64967;50.234;19.224;2024-03-08T08:12:12;43.67;38.67;26.33
76049;PMS7003;64967;50.234;19.224;2024-03-08T08:14:39;40.00;37.00;25.33
76049;PMS7003;64967;50.234;19.224;2024-03-08T08:17:05;42.33;34.33;20.00
76049;PMS7003;64967;50.234;19.224;2024-03-08T08:19:34;42.67;37.00;24.00
76049;PMS7003;64967;50.234;19.224;2024-03-08T08:22:07;58.00;39.67;22.33
76049;PMS7003;64967;50.234;19.224;2024-03-08T08:24:35;48.00;38.67;26.00
76049;PMS7003;64967;50.234;19.224;2024-03-08T08:27:03;44.33;30.67;19.00
76049;PMS7003;64967;50.234;19.224;2024-03-08T08:29:30;57.00;38.00;23.67
76049;PMS7003;64967;50.234;19.224;2024-03-08T08:31:59;46.67;40.33;25.00
76049;PMS7003;64967;50.234;19.224;2024-03-08T08:34:28;61.33;44.00;28.33
76049;PMS7003;64967;50.234;19.224;2024-03-08T08:36:56;46.00;34.00;20.67
76049;PMS7003;64967;50.234;19.224;2024-03-08T08:39:23;49.00;41.00;26.33
76049;PMS7003;64967;50.234;19.224;2024-03-08T08:41:52;50.33;34.33;26.67
76049;PMS7003;64967;50.234;19.224;2024-03-08T08:44:21;40.00;35.67;19.00
76049;PMS7003;64967;50.234;19.224;2024-03-08T08:46:47;49.33;38.00;26.00
76049;PMS7003;64967;50.234;19.224;2024-03-08T08:49:15;53.67;42.00;27.00
76049;PMS7003;64967;50.234;19.224;2024-03-08T08:51:50;54.33;45.00;29.33
76049;PMS7003;64967;50.234;19.224;2024-03-08T08:54:19;47.00;38.00;23.33
76049;PMS7003;64967;50.234;19.224;2024-03-08T08:56:47;52.67;39.33;25.33
76049;PMS7003;64967;50.234;19.224;2024-03-08T08:59:13;51.67;40.33;24.67
76049;PMS7003;64967;50.234;19.224;2024-03-08T09:01:40;44.33;35.67;24.67
76049;PMS7003;64967;50.234;19.224;2024-03-08T09:04:08;56.67;43.00;27.00
76049;PMS7003;64967;50.234;19.224;2024-03-08T09:06:37;50.67;34.00;26.00
76049;PMS7003;64967;50.234;19.224;2024-03-08T09:09:04;49.67;38.33;24.67
76049;PMS7003;64967;50.234;19.224;2024-03-08T09:11:32;47.33;37.00;24.33
76049;PMS7003;64967;50.234;19.224;2024-03-08T09:13:59;54.33;39.00;25.33
76049;PMS7003;64967;50.234;19.224;2024-03-08T09:16:26;50.67;38.33;25.00
76049;PMS7003;64967;50.234;19.224;2024-03-08T09:18:52;51.67;39.33;25.33
76049;PMS7003;64967;50.234;19.224;2024-03-08T09:21:19;45.00;37.33;27.00
76049;PMS7003;64967;50.234;19.224;2024-03-08T09:23:49;46.00;40.00;25.00
76049;PMS7003;64967;50.234;19.224;2024-03-08T09:26:16;48.00;38.33;23.00
76049;PMS7003;64967;50.234;19.224;2024-03-08T09:28:53;38.00;33.00;21.00
76049;PMS7003;64967;50.234;19.224;2024-03-08T09:31:23;58.00;40.00;24.00
76049;PMS7003;64967;50.234;19.224;2024-03-08T09:33:50;31.67;26.67;18.33
76049;PMS7003;64967;50.234;19.224;2024-03-08T09:36:17;29.00;24.67;17.00
76049;PMS7003;64967;50.234;19.224;2024-03-08T09:38:43;31.33;28.33;17.67
76049;PMS7003;64967;50.234;19.224;2024-03-08T09:41:10;33.00;23.33;17.67
76049;PMS7003;64967;50.234;19.224;2024-03-08T09:43:37;35.33;25.00;17.00
76049;PMS7003;64967;50.234;19.224;2024-03-08T09:46:04;20.00;17.50;12.25
76049;PMS7003;64967;50.234;19.224;2024-03-08T09:48:32;34.67;29.00;21.67
76049;PMS7003;64967;50.234;19.224;2024-03-08T09:51:00;40.00;31.00;19.00
76049;PMS7003;64967;50.234;19.224;2024-03-08T09:53:28;28.00;24.50;15.00
76049;PMS7003;64967;50.234;19.224;2024-03-08T09:55:54;28.25;24.50;19.00
76049;PMS7003;64967;50.234;19.224;2024-03-08T09:58:21;45.67;32.67;24.00
76049;PMS7003;64967;50.234;19.224;2024-03-08T10:01:00;40.00;33.67;20.00
76049;PMS7003;64967;50.234;19.224;2024-03-08T10:03:31;46.67;37.00;22.00
76049;PMS7003;64967;50.234;19.224;2024-03-08T10:05:59;42.67;38.00;24.67
76049;PMS7003;64967;50.234;19.224;2024-03-08T10:08:29;41.33;32.00;20.67
76049;PMS7003;64967;50.234;19.224;2024-03-08T10:10:56;38.00;31.25;19.50
76049;PMS7003;64967;50.234;19.224;2024-03-08T10:13:27;38.25;29.75;20.25
76049;PMS7003;64967;50.234;19.224;2024-03-08T10:15:54;35.25;29.75;19.00
76049;PMS7003;64967;50.234;19.224;2024-03-08T10:18:21;27.75;19.75;15.00
76049;PMS7003;64967;50.234;19.224;2024-03-08T10:21:05;24.25;21.50;13.50
76049;PMS7003;64967;50.234;19.224;2024-03-08T10:23:33;30.50;27.25;18.25
76049;PMS7003;64967;50.234;19.224;2024-03-08T10:26:10;42.50;33.75;24.50
76049;PMS7003;64967;50.234;19.224;2024-03-08T10:28:45;32.25;22.75;15.25
76049;PMS7003;64967;50.234;19.224;2024-03-08T10:31:14;33.75;29.00;19.00
76049;PMS7003;64967;50.234;19.224;2024-03-08T10:33:46;48.33;40.00;26.00
76049;PMS7003;64967;50.234;19.224;2024-03-08T10:36:13;50.00;40.00;27.67
76049;PMS7003;64967;50.234;19.224;2024-03-08T10:38:41;43.75;31.50;20.00
76049;PMS7003;64967;50.234;19.224;2024-03-08T10:41:14;40.50;34.00;20.75
76049;PMS7003;64967;50.234;19.224;2024-03-08T10:47:00;42.75;35.00;23.75
76049;PMS7003;64967;50.234;19.224;2024-03-08T10:52:21;30.50;25.00;19.00
76049;PMS7003;64967;50.234;19.224;2024-03-08T10:54:49;31.25;25.50;18.00
76049;PMS7003;64967;50.234;19.224;2024-03-08T10:57:18;29.25;24.25;16.75
76049;PMS7003;64967;50.234;19.224;2024-03-08T10:59:50;34.75;31.00;20.50
76049;PMS7003;64967;50.234;19.224;2024-03-08T11:02:20;35.75;28.75;19.25
76049;PMS7003;64967;50.234;19.224;2024-03-08T11:04:50;44.75;31.00;20.75
76049;PMS7003;64967;50.234;19.224;2024-03-08T11:07:17;31.50;26.00;16.00
76049;PMS7003;64967;50.234;19.224;2024-03-08T11:09:49;39.50;31.75;21.00
76049;PMS7003;64967;50.234;19.224;2024-03-08T11:12:18;29.25;24.50;17.50
76049;PMS7003;64967;50.234;19.224;2024-03-08T11:14:48;51.50;39.25;25.50
76049;PMS7003;64967;50.234;19.224;2024-03-08T11:17:20;37.50;30.25;18.50
76049;PMS7003;64967;50.234;19.224;2024-03-08T11:20:00;32.75;27.75;20.25
76049;PMS7003;64967;50.234;19.224;2024-03-08T11:22:32;45.75;37.00;24.25
76049;PMS7003;64967;50.234;19.224;2024-03-08T11:25:03;28.75;26.50;17.50
76049;PMS7003;64967;50.234;19.224;2024-03-08T11:27:38;26.25;20.75;14.25
76049;PMS7003;64967;50.234;19.224;2024-03-08T11:30:06;25.75;20.25;11.75
76049;PMS7003;64967;50.234;19.224;2024-03-08T11:32:53;30.50;22.75;16.00
76049;PMS7003;64967;50.234;19.224;2024-03-08T11:35:21;39.50;34.75;19.75
76049;PMS7003;64967;50.234;19.224;2024-03-08T11:37:49;42.25;36.75;24.00
76049;PMS7003;64967;50.234;19.224;2024-03-08T11:40:17;48.25;39.25;25.75
76049;PMS7003;64967;50.234;19.224;2024-03-08T11:42:45;41.50;38.75;24.00
76049;PMS7003;64967;50.234;19.224;2024-03-08T11:45:15;35.25;30.25;18.00
76049;PMS7003;64967;50.234;19.224;2024-03-08T11:47:44;23.00;22.25;16.00
76049;PMS7003;64967;50.234;19.224;2024-03-08T11:50:16;19.25;17.75;12.75
76049;PMS7003;64967;50.234;19.224;2024-03-08T11:52:45;20.50;17.25;12.00
76049;PMS7003;64967;50.234;19.224;2024-03-08T11:55:13;49.50;36.50;24.00
76049;PMS7003;64967;50.234;19.224;2024-03-08T11:57:40;42.75;34.50;22.75
76049;PMS7003;64967;50.234;19.224;2024-03-08T12:00:14;31.25;30.25;21.25
76049;PMS7003;64967;50.234;19.224;2024-03-08T12:03:00;39.50;33.50;21.25
76049;PMS7003;64967;50.234;19.224;2024-03-08T12:05:28;45.50;36.00;22.50
76049;PMS7003;64967;50.234;19.224;2024-03-08T12:07:56;40.50;34.25;20.50
76049;PMS7003;64967;50.234;19.224;2024-03-08T12:10:24;33.00;26.50;16.75
76049;PMS7003;64967;50.234;19.224;2024-03-08T12:12:52;36.00;27.75;18.25
76049;PMS7003;64967;50.234;19.224;2024-03-08T12:15:21;30.25;25.75;18.75
76049;PMS7003;64967;50.234;19.224;2024-03-08T12:17:52;31.00;26.25;17.25
76049;PMS7003;64967;50.234;19.224;2024-03-08T12:20:25;22.75;18.75;13.00
76049;PMS7003;64967;50.234;19.224;2024-03-08T12:22:53;37.75;34.00;20.75
76049;PMS7003;64967;50.234;19.224;2024-03-08T12:25:32;26.25;22.25;14.00
76049;PMS7003;64967;50.234;19.224;2024-03-08T12:28:12;28.75;25.00;16.50
76049;PMS7003;64967;50.234;19.224;2024-03-08T12:30:47;31.50;24.75;17.00
76049;PMS7003;64967;50.234;19.224;2024-03-08T12:33:17;26.00;22.00;16.25
76049;PMS7003;64967;50.234;19.224;2024-03-08T12:35:51;30.75;23.75;14.25
76049;PMS7003;64967;50.234;19.224;2024-03-08T12:38:22;31.50;28.00;19.00
76049;PMS7003;64967;50.234;19.224;2024-03-08T12:40:57;27.50;18.00;13.00
76049;PMS7003;64967;50.234;19.224;2024-03-08T12:43:25;26.00;18.75;13.00
76049;PMS7003;64967;50.234;19.224;2024-03-08T12:45:52;24.00;16.75;9.00
76049;PMS7003;64967;50.234;19.224;2024-03-08T12:48:19;25.25;21.00;13.50
76049;PMS7003;64967;50.234;19.224;2024-03-08T12:50:47;41.75;34.75;21.00
76049;PMS7003;64967;50.234;19.224;2024-03-08T12:53:14;44.50;36.25;23.75
76049;PMS7003;64967;50.234;19.224;2024-03-08T12:55:41;35.25;30.50;22.50
76049;PMS7003;64967;50.234;19.224;2024-03-08T12:58:08;29.75;25.00;18.00
76049;PMS7003;64967;50.234;19.224;2024-03-08T13:00:35;25.00;20.00;14.00
76049;PMS7003;64967;50.234;19.224;2024-03-08T13:03:03;21.50;19.25;13.00
76049;PMS7003;64967;50.234;19.224;2024-03-08T13:05:30;16.25;13.50;8.50
76049;PMS7003;64967;50.234;19.224;2024-03-08T13:07:56;16.00;15.25;12.50
76049;PMS7003;64967;50.234;19.224;2024-03-08T13:10:23;25.25;20.00;13.75
76049;PMS7003;64967;50.234;19.224;2024-03-08T13:12:50;16.00;12.00;6.25
76049;PMS7003;64967;50.234;19.224;2024-03-08T13:15:20;14.00;12.25;8.00
76049;PMS7003;64967;50.234;19.224;2024-03-08T13:17:47;13.00;13.00;9.75
76049;PMS7003;64967;50.234;19.224;2024-03-08T13:20:15;25.25;21.00;14.50
76049;PMS7003;64967;50.234;19.224;2024-03-08T13:22:56;25.50;21.75;14.75
76049;PMS7003;64967;50.234;19.224;2024-03-08T13:25:23;28.00;26.50;18.75
76049;PMS7003;64967;50.234;19.224;2024-03-08T13:27:50;40.00;35.25;23.25
76049;PMS7003;64967;50.234;19.224;2024-03-08T13:30:17;41.00;37.75;25.50
76049;PMS7003;64967;50.234;19.224;2024-03-08T13:32:45;31.50;28.00;18.75
76049;PMS7003;64967;50.234;19.224;2024-03-08T13:35:11;26.00;20.75;15.00
76049;PMS7003;64967;50.234;19.224;2024-03-08T13:37:42;25.75;23.00;14.00
76049;PMS7003;64967;50.234;19.224;2024-03-08T13:40:09;23.25;21.00;16.50
76049;PMS7003;64967;50.234;19.224;2024-03-08T13:42:37;29.00;24.00;17.00
76049;PMS7003;64967;50.234;19.224;2024-03-08T13:45:08;33.75;27.75;20.25
76049;PMS7003;64967;50.234;19.224;2024-03-08T13:47:38;35.25;30.25;19.00